Grand Terrace, CA (92313)

1:15 PM PDT on August 21, 2014 (GMT -0700)
Arliss Station | Change Station
CLOSE
Current Station
Personal Weather Station
Location: Grand Terrace, CA
Elevation: 1135 ft
Nearby Weather Stations
Active Advisory: Flash Flood Warning, Areal Flood Advisory Active Notice: Record Report

Elev 1135 ft 34.04 °N, 117.31 °W | Updated 17 seconds ago

Haze
Haze
89.4 °F
Feels Like 90 °F
N
2.2
Wind Variable Wind from NW
Gusts 7.6 mph

Today
High -- | Low -- °F
--% Chance of Precip.
Yesterday
High -- | Low -- °F
Precip. -- in
6:15 AM 7:29 PM
Waning Crescent, 12% visible
Pressure 29.95 in
Visibility 6.0 miles
Clouds Few 8000 ft
Scattered Clouds 12000 ft
Heat Index 90 °F
Dew Point 62 °F
Humidity 40%
Rainfall 0.01 in
Snow Depth Not available.
UV 9 out of 12
Pollen 5.40 out of 12
Ozone Good
PM2.5 Moderate
Flu Activity Not available.
METAR KSBD 211950Z 27006KT 6SM HZ FEW080 SCT120 28/13 A2995

More Conditions Fewer Conditions

Pressure 29.95 in
Visibility 6.0 miles
Clouds Few 8000 ft
Scattered Clouds 12000 ft
Heat Index 90 °F
Dew Point 62 °F
Humidity 40%
Rainfall 0.01 in
Snow Depth Not available.
UV 9 out of 12
Pollen 5.40 out of 12
Ozone Good
PM2.5 Moderate
Flu Activity Not available.
METAR KSBD 211950Z 27006KT 6SM HZ FEW080 SCT120 28/13 A2995

More Conditions Fewer Conditions

10-Day Weather Forecast

Almanac

Astronomy

Aug. 21, 2014 Rise Set
Actual Time 6:15 AM PDT 7:29 PM PDT
Civil Twilight 5:49 AM PDT 7:55 PM PDT
Nautical Twilight 5:17 AM PDT 8:26 PM PDT
Astronomical Twilight 4:45 AM PDT 8:58 PM PDT
Moon 2:53 AM PDT 4:57 PM PDT
Length of Visible Light 14h 06m
Length of Day
13h 13m
Tomorrow will be 1m 56s shorter.
Waning Crescent, 12% of the Moon is Illuminated
Today
Waning Crescent
Aug 25
New
Sep 2
First Quarter
Sep 8
Full
Sep 15
Last Quarter

Today's Extremes

State Highs State Lows

Community

WunderPhotos

Upload Photos

1,746,014 photos uploaded!

WunderBlogs® & News

Nearby

Air Quality

  Air Quality AQ Index Pollutant
Yesterday Good
PM10
Yesterday Good
OZONE
Current Moderate
PM2.5
Current Good
OZONE
Friday Good
PM10
Friday Moderate
OZONE
Friday Good
CO
Friday Good
NO2

Snow Depth

Station Depth Elevation
Adin Mountain 0 in 6200 ft
Cedar Pass 1 in 7100 ft
Crowder Flat 0 in 5100 ft

Earthquake Activity

City Distance Mag. Time & Date
Malibu Beach, California 80 miles 3.4 10:03 AM PDT
2014-08-15
Yucca Valley, California 52 miles 3.8 8:57 PM PDT
2014-08-14
Minimum magnitude displayed is 2.5.

Coastal Water Temperatures

Place Temperature
No Stations Reporting

Nearby Weather Stations